sensor_id;sensor_type;location;lat;lon;timestamp;P1;durP1;ratioP1;P2;durP2;ratioP2
9722;SDS011;4900;49.306;8.500;2024-01-16T00:01:42;6.90;;;4.77;;
9722;SDS011;4900;49.306;8.500;2024-01-16T00:04:08;7.67;;;4.73;;
9722;SDS011;4900;49.306;8.500;2024-01-16T00:06:38;8.23;;;5.40;;
9722;SDS011;4900;49.306;8.500;2024-01-16T00:09:04;8.43;;;5.83;;
9722;SDS011;4900;49.306;8.500;2024-01-16T00:11:31;8.73;;;5.03;;
9722;SDS011;4900;49.306;8.500;2024-01-16T00:13:56;10.27;;;5.90;;
9722;SDS011;4900;49.306;8.500;2024-01-16T00:16:22;10.93;;;6.23;;
9722;SDS011;4900;49.306;8.500;2024-01-16T00:18:47;9.23;;;6.03;;
9722;SDS011;4900;49.306;8.500;2024-01-16T00:21:13;8.53;;;5.53;;
9722;SDS011;4900;49.306;8.500;2024-01-16T00:23:38;9.93;;;6.30;;
9722;SDS011;4900;49.306;8.500;2024-01-16T00:26:05;11.40;;;6.47;;
9722;SDS011;4900;49.306;8.500;2024-01-16T00:28:33;12.03;;;6.50;;
9722;SDS011;4900;49.306;8.500;2024-01-16T00:31:00;8.80;;;5.97;;
9722;SDS011;4900;49.306;8.500;2024-01-16T00:33:25;9.97;;;7.00;;
9722;SDS011;4900;49.306;8.500;2024-01-16T00:35:52;10.87;;;6.10;;
9722;SDS011;4900;49.306;8.500;2024-01-16T00:38:17;10.67;;;5.83;;
9722;SDS011;4900;49.306;8.500;2024-01-16T00:40:43;9.37;;;5.97;;
9722;SDS011;4900;49.306;8.500;2024-01-16T00:43:08;13.30;;;6.37;;
9722;SDS011;4900;49.306;8.500;2024-01-16T00:45:35;12.27;;;6.60;;
9722;SDS011;4900;49.306;8.500;2024-01-16T00:48:01;13.07;;;6.37;;
9722;SDS011;4900;49.306;8.500;2024-01-16T00:50:31;11.33;;;5.50;;
9722;SDS011;4900;49.306;8.500;2024-01-16T00:52:56;9.13;;;5.87;;
9722;SDS011;4900;49.306;8.500;2024-01-16T00:55:22;9.30;;;5.77;;
9722;SDS011;4900;49.306;8.500;2024-01-16T00:57:47;10.37;;;5.63;;
9722;SDS011;4900;49.306;8.500;2024-01-16T01:00:12;11.57;;;6.20;;
9722;SDS011;4900;49.306;8.500;2024-01-16T01:02:38;10.87;;;6.03;;
9722;SDS011;4900;49.306;8.500;2024-01-16T01:05:04;12.20;;;6.37;;
9722;SDS011;4900;49.306;8.500;2024-01-16T01:07:29;9.80;;;6.53;;
9722;SDS011;4900;49.306;8.500;2024-01-16T01:09:55;9.37;;;5.67;;
9722;SDS011;4900;49.306;8.500;2024-01-16T01:12:20;11.30;;;6.07;;
9722;SDS011;4900;49.306;8.500;2024-01-16T01:14:46;9.40;;;5.57;;
9722;SDS011;4900;49.306;8.500;2024-01-16T01:17:11;8.97;;;5.57;;
9722;SDS011;4900;49.306;8.500;2024-01-16T01:19:38;9.93;;;5.13;;
9722;SDS011;4900;49.306;8.500;2024-01-16T01:22:03;9.63;;;5.80;;
9722;SDS011;4900;49.306;8.500;2024-01-16T01:24:29;9.37;;;5.90;;
9722;SDS011;4900;49.306;8.500;2024-01-16T01:26:55;10.67;;;5.53;;
9722;SDS011;4900;49.306;8.500;2024-01-16T01:29:20;8.73;;;5.37;;
9722;SDS011;4900;49.306;8.500;2024-01-16T01:31:47;11.27;;;6.00;;
9722;SDS011;4900;49.306;8.500;2024-01-16T01:34:13;9.53;;;5.63;;
9722;SDS011;4900;49.306;8.500;2024-01-16T01:36:38;8.67;;;5.47;;
9722;SDS011;4900;49.306;8.500;2024-01-16T01:39:03;8.70;;;5.47;;
9722;SDS011;4900;49.306;8.500;2024-01-16T01:41:29;7.73;;;5.03;;
9722;SDS011;4900;49.306;8.500;2024-01-16T01:43:57;11.13;;;5.67;;
9722;SDS011;4900;49.306;8.500;2024-01-16T01:46:23;10.83;;;6.30;;
9722;SDS011;4900;49.306;8.500;2024-01-16T01:48:48;11.53;;;5.87;;
9722;SDS011;4900;49.306;8.500;2024-01-16T01:51:16;10.30;;;5.80;;
9722;SDS011;4900;49.306;8.500;2024-01-16T01:53:43;9.43;;;5.37;;
9722;SDS011;4900;49.306;8.500;2024-01-16T01:56:14;9.20;;;5.40;;
9722;SDS011;4900;49.306;8.500;2024-01-16T01:58:40;8.53;;;5.50;;
9722;SDS011;4900;49.306;8.500;2024-01-16T02:01:08;7.93;;;5.73;;
9722;SDS011;4900;49.306;8.500;2024-01-16T02:03:35;10.40;;;6.07;;
9722;SDS011;4900;49.306;8.500;2024-01-16T02:06:06;10.80;;;5.73;;
9722;SDS011;4900;49.306;8.500;2024-01-16T02:08:32;7.47;;;5.80;;
9722;SDS011;4900;49.306;8.500;2024-01-16T02:10:58;8.10;;;5.70;;
9722;SDS011;4900;49.306;8.500;2024-01-16T02:13:23;12.23;;;5.83;;
9722;SDS011;4900;49.306;8.500;2024-01-16T02:15:51;8.77;;;5.40;;
9722;SDS011;4900;49.306;8.500;2024-01-16T02:18:17;10.93;;;6.30;;
9722;SDS011;4900;49.306;8.500;2024-01-16T02:20:46;11.13;;;7.43;;
9722;SDS011;4900;49.306;8.500;2024-01-16T02:23:13;9.67;;;6.37;;
9722;SDS011;4900;49.306;8.500;2024-01-16T02:25:43;11.37;;;6.57;;
9722;SDS011;4900;49.306;8.500;2024-01-16T02:28:08;10.40;;;6.43;;
9722;SDS011;4900;49.306;8.500;2024-01-16T02:30:34;10.63;;;6.33;;
9722;SDS011;4900;49.306;8.500;2024-01-16T02:32:59;10.23;;;6.40;;
9722;SDS011;4900;49.306;8.500;2024-01-16T02:35:25;10.93;;;6.57;;
9722;SDS011;4900;49.306;8.500;2024-01-16T02:37:50;10.47;;;6.50;;
9722;SDS011;4900;49.306;8.500;2024-01-16T02:40:16;10.77;;;6.40;;
9722;SDS011;4900;49.306;8.500;2024-01-16T02:42:41;10.60;;;6.13;;
9722;SDS011;4900;49.306;8.500;2024-01-16T02:45:07;11.03;;;6.70;;
9722;SDS011;4900;49.306;8.500;2024-01-16T02:47:33;12.07;;;7.27;;
9722;SDS011;4900;49.306;8.500;2024-01-16T02:49:59;12.90;;;7.07;;
9722;SDS011;4900;49.306;8.500;2024-01-16T02:52:25;12.10;;;7.10;;
9722;SDS011;4900;49.306;8.500;2024-01-16T02:54:51;12.00;;;7.00;;
9722;SDS011;4900;49.306;8.500;2024-01-16T02:57:17;11.20;;;6.30;;
9722;SDS011;4900;49.306;8.500;2024-01-16T02:59:45;11.60;;;6.70;;
9722;SDS011;4900;49.306;8.500;2024-01-16T03:02:11;10.07;;;6.07;;
9722;SDS011;4900;49.306;8.500;2024-01-16T03:04:37;9.30;;;5.83;;
9722;SDS011;4900;49.306;8.500;2024-01-16T03:07:03;9.90;;;5.80;;
9722;SDS011;4900;49.306;8.500;2024-01-16T03:09:28;9.90;;;6.03;;
9722;SDS011;4900;49.306;8.500;2024-01-16T03:11:53;8.57;;;5.97;;
9722;SDS011;4900;49.306;8.500;2024-01-16T03:14:19;9.13;;;5.70;;
9722;SDS011;4900;49.306;8.500;2024-01-16T03:16:45;11.10;;;6.03;;
9722;SDS011;4900;49.306;8.500;2024-01-16T03:19:11;10.23;;;5.73;;
9722;SDS011;4900;49.306;8.500;2024-01-16T03:21:37;10.80;;;5.50;;
9722;SDS011;4900;49.306;8.500;2024-01-16T03:24:04;9.40;;;5.60;;
9722;SDS011;4900;49.306;8.500;2024-01-16T03:26:30;10.17;;;5.93;;
9722;SDS011;4900;49.306;8.500;2024-01-16T03:28:57;8.37;;;5.43;;
9722;SDS011;4900;49.306;8.500;2024-01-16T03:31:22;11.20;;;6.07;;
9722;SDS011;4900;49.306;8.500;2024-01-16T03:33:48;10.63;;;6.40;;
9722;SDS011;4900;49.306;8.500;2024-01-16T03:36:14;9.90;;;5.67;;
9722;SDS011;4900;49.306;8.500;2024-01-16T03:38:41;10.20;;;5.80;;
9722;SDS011;4900;49.306;8.500;2024-01-16T03:41:13;11.23;;;6.07;;
9722;SDS011;4900;49.306;8.500;2024-01-16T03:43:39;11.67;;;6.40;;
9722;SDS011;4900;49.306;8.500;2024-01-16T03:46:05;12.27;;;6.50;;
9722;SDS011;4900;49.306;8.500;2024-01-16T03:48:30;10.63;;;5.90;;
9722;SDS011;4900;49.306;8.500;2024-01-16T03:50:56;10.80;;;6.67;;
9722;SDS011;4900;49.306;8.500;2024-01-16T03:53:22;10.03;;;5.60;;
9722;SDS011;4900;49.306;8.500;2024-01-16T03:55:47;12.83;;;7.13;;
9722;SDS011;4900;49.306;8.500;2024-01-16T03:58:14;11.43;;;6.70;;
9722;SDS011;4900;49.306;8.500;2024-01-16T04:00:40;10.17;;;5.77;;
9722;SDS011;4900;49.306;8.500;2024-01-16T04:03:06;10.07;;;5.90;;
9722;SDS011;4900;49.306;8.500;2024-01-16T04:05:32;11.73;;;6.47;;
9722;SDS011;4900;49.306;8.500;2024-01-16T04:07:58;10.33;;;6.10;;
9722;SDS011;4900;49.306;8.500;2024-01-16T04:10:23;9.60;;;5.60;;
9722;SDS011;4900;49.306;8.500;2024-01-16T04:12:49;8.90;;;5.80;;
9722;SDS011;4900;49.306;8.500;2024-01-16T04:15:14;9.77;;;6.13;;
9722;SDS011;4900;49.306;8.500;2024-01-16T04:17:39;10.07;;;5.70;;
9722;SDS011;4900;49.306;8.500;2024-01-16T04:20:05;14.03;;;6.03;;
9722;SDS011;4900;49.306;8.500;2024-01-16T04:22:32;10.27;;;6.23;;
9722;SDS011;4900;49.306;8.500;2024-01-16T04:24:58;12.37;;;6.20;;
9722;SDS011;4900;49.306;8.500;2024-01-16T04:27:24;11.27;;;6.07;;
9722;SDS011;4900;49.306;8.500;2024-01-16T04:29:50;14.13;;;6.70;;
9722;SDS011;4900;49.306;8.500;2024-01-16T04:32:16;10.90;;;5.93;;
9722;SDS011;4900;49.306;8.500;2024-01-16T04:34:42;10.77;;;6.40;;
9722;SDS011;4900;49.306;8.500;2024-01-16T04:37:07;11.17;;;5.97;;
9722;SDS011;4900;49.306;8.500;2024-01-16T04:39:32;11.10;;;6.73;;
9722;SDS011;4900;49.306;8.500;2024-01-16T04:41:58;7.70;;;5.07;;
9722;SDS011;4900;49.306;8.500;2024-01-16T04:44:23;12.73;;;5.83;;
9722;SDS011;4900;49.306;8.500;2024-01-16T04:46:49;9.87;;;5.83;;
9722;SDS011;4900;49.306;8.500;2024-01-16T04:49:14;10.73;;;5.57;;
9722;SDS011;4900;49.306;8.500;2024-01-16T04:51:41;10.60;;;6.40;;
9722;SDS011;4900;49.306;8.500;2024-01-16T04:54:06;9.83;;;6.20;;
9722;SDS011;4900;49.306;8.500;2024-01-16T04:56:32;12.70;;;5.87;;
9722;SDS011;4900;49.306;8.500;2024-01-16T04:58:57;10.20;;;6.10;;
9722;SDS011;4900;49.306;8.500;2024-01-16T05:01:23;10.40;;;6.10;;
9722;SDS011;4900;49.306;8.500;2024-01-16T05:03:50;9.70;;;5.37;;
9722;SDS011;4900;49.306;8.500;2024-01-16T05:06:15;9.10;;;5.37;;
9722;SDS011;4900;49.306;8.500;2024-01-16T05:08:42;10.43;;;5.67;;
9722;SDS011;4900;49.306;8.500;2024-01-16T05:11:08;9.00;;;5.63;;
9722;SDS011;4900;49.306;8.500;2024-01-16T05:13:34;11.03;;;6.27;;
9722;SDS011;4900;49.306;8.500;2024-01-16T05:15:59;10.70;;;5.50;;
9722;SDS011;4900;49.306;8.500;2024-01-16T05:18:24;9.10;;;5.37;;
9722;SDS011;4900;49.306;8.500;2024-01-16T05:20:50;9.77;;;5.80;;
9722;SDS011;4900;49.306;8.500;2024-01-16T05:23:15;9.53;;;6.10;;
9722;SDS011;4900;49.306;8.500;2024-01-16T05:25:41;7.80;;;5.30;;
9722;SDS011;4900;49.306;8.500;2024-01-16T05:28:06;12.10;;;6.23;;
9722;SDS011;4900;49.306;8.500;2024-01-16T05:30:32;11.30;;;7.00;;
9722;SDS011;4900;49.306;8.500;2024-01-16T05:32:58;9.33;;;6.00;;
9722;SDS011;4900;49.306;8.500;2024-01-16T05:35:26;13.20;;;6.83;;
9722;SDS011;4900;49.306;8.500;2024-01-16T05:37:53;9.37;;;5.43;;
9722;SDS011;4900;49.306;8.500;2024-01-16T05:40:19;10.57;;;5.80;;
9722;SDS011;4900;49.306;8.500;2024-01-16T05:42:44;10.17;;;5.37;;
9722;SDS011;4900;49.306;8.500;2024-01-16T05:45:10;9.73;;;5.37;;
9722;SDS011;4900;49.306;8.500;2024-01-16T05:47:35;9.40;;;5.23;;
9722;SDS011;4900;49.306;8.500;2024-01-16T05:50:01;9.67;;;5.90;;
9722;SDS011;4900;49.306;8.500;2024-01-16T05:52:26;10.67;;;5.93;;
9722;SDS011;4900;49.306;8.500;2024-01-16T05:54:52;11.20;;;5.67;;
9722;SDS011;4900;49.306;8.500;2024-01-16T05:57:17;9.03;;;5.63;;
9722;SDS011;4900;49.306;8.500;2024-01-16T05:59:43;9.70;;;5.47;;
9722;SDS011;4900;49.306;8.500;2024-01-16T06:02:09;9.60;;;5.87;;
9722;SDS011;4900;49.306;8.500;2024-01-16T06:04:35;11.17;;;5.77;;
9722;SDS011;4900;49.306;8.500;2024-01-16T06:07:01;11.77;;;6.60;;
9722;SDS011;4900;49.306;8.500;2024-01-16T06:09:27;10.87;;;6.43;;
9722;SDS011;4900;49.306;8.500;2024-01-16T06:11:53;10.47;;;5.87;;
9722;SDS011;4900;49.306;8.500;2024-01-16T06:14:18;8.20;;;5.40;;
9722;SDS011;4900;49.306;8.500;2024-01-16T06:16:46;10.87;;;5.93;;
9722;SDS011;4900;49.306;8.500;2024-01-16T06:19:12;7.73;;;5.67;;
9722;SDS011;4900;49.306;8.500;2024-01-16T06:21:38;11.23;;;5.67;;
9722;SDS011;4900;49.306;8.500;2024-01-16T06:24:04;9.50;;;6.37;;
9722;SDS011;4900;49.306;8.500;2024-01-16T06:26:30;9.60;;;6.47;;
9722;SDS011;4900;49.306;8.500;2024-01-16T06:28:56;11.60;;;6.40;;
9722;SDS011;4900;49.306;8.500;2024-01-16T06:31:22;10.80;;;6.80;;
9722;SDS011;4900;49.306;8.500;2024-01-16T06:33:48;10.40;;;6.57;;
9722;SDS011;4900;49.306;8.500;2024-01-16T06:36:14;8.40;;;5.37;;
9722;SDS011;4900;49.306;8.500;2024-01-16T06:38:39;14.97;;;6.50;;
9722;SDS011;4900;49.306;8.500;2024-01-16T06:41:05;11.43;;;6.23;;
9722;SDS011;4900;49.306;8.500;2024-01-16T06:43:31;10.43;;;6.60;;
9722;SDS011;4900;49.306;8.500;2024-01-16T06:45:56;9.57;;;6.30;;
9722;SDS011;4900;49.306;8.500;2024-01-16T06:48:22;12.03;;;6.80;;
9722;SDS011;4900;49.306;8.500;2024-01-16T06:50:47;11.50;;;6.67;;
9722;SDS011;4900;49.306;8.500;2024-01-16T06:53:13;9.33;;;5.87;;
9722;SDS011;4900;49.306;8.500;2024-01-16T06:55:38;12.63;;;6.27;;
9722;SDS011;4900;49.306;8.500;2024-01-16T06:58:04;13.93;;;6.63;;
9722;SDS011;4900;49.306;8.500;2024-01-16T07:00:30;13.40;;;6.60;;
9722;SDS011;4900;49.306;8.500;2024-01-16T07:02:56;10.13;;;5.43;;
9722;SDS011;4900;49.306;8.500;2024-01-16T07:05:22;10.13;;;6.13;;
9722;SDS011;4900;49.306;8.500;2024-01-16T07:07:47;11.37;;;6.87;;
9722;SDS011;4900;49.306;8.500;2024-01-16T07:10:13;10.57;;;6.13;;
9722;SDS011;4900;49.306;8.500;2024-01-16T07:12:46;12.10;;;7.07;;
9722;SDS011;4900;49.306;8.500;2024-01-16T07:15:12;10.33;;;6.13;;
9722;SDS011;4900;49.306;8.500;2024-01-16T07:17:38;11.00;;;6.13;;
9722;SDS011;4900;49.306;8.500;2024-01-16T07:20:04;11.97;;;6.97;;
9722;SDS011;4900;49.306;8.500;2024-01-16T07:22:30;9.70;;;6.47;;
9722;SDS011;4900;49.306;8.500;2024-01-16T07:24:56;10.63;;;6.00;;
9722;SDS011;4900;49.306;8.500;2024-01-16T07:27:21;11.20;;;6.43;;
9722;SDS011;4900;49.306;8.500;2024-01-16T07:29:46;11.27;;;6.60;;
9722;SDS011;4900;49.306;8.500;2024-01-16T07:32:12;11.60;;;6.27;;
9722;SDS011;4900;49.306;8.500;2024-01-16T07:34:37;11.30;;;6.77;;
9722;SDS011;4900;49.306;8.500;2024-01-16T07:37:03;11.17;;;6.90;;
9722;SDS011;4900;49.306;8.500;2024-01-16T07:39:28;9.60;;;6.07;;
9722;SDS011;4900;49.306;8.500;2024-01-16T07:41:54;12.40;;;7.50;;
9722;SDS011;4900;49.306;8.500;2024-01-16T07:44:19;12.87;;;7.17;;
9722;SDS011;4900;49.306;8.500;2024-01-16T07:46:45;12.27;;;6.60;;
9722;SDS011;4900;49.306;8.500;2024-01-16T07:49:10;12.87;;;6.83;;
9722;SDS011;4900;49.306;8.500;2024-01-16T07:51:35;12.73;;;6.80;;
9722;SDS011;4900;49.306;8.500;2024-01-16T07:54:04;12.37;;;7.30;;
9722;SDS011;4900;49.306;8.500;2024-01-16T07:56:34;11.50;;;6.73;;
9722;SDS011;4900;49.306;8.500;2024-01-16T07:59:00;12.63;;;6.80;;
9722;SDS011;4900;49.306;8.500;2024-01-16T08:01:26;10.77;;;6.63;;
9722;SDS011;4900;49.306;8.500;2024-01-16T08:03:53;12.20;;;6.47;;
9722;SDS011;4900;49.306;8.500;2024-01-16T08:06:19;13.80;;;7.47;;
9722;SDS011;4900;49.306;8.500;2024-01-16T08:08:45;10.87;;;6.67;;
9722;SDS011;4900;49.306;8.500;2024-01-16T08:11:11;14.90;;;7.30;;
9722;SDS011;4900;49.306;8.500;2024-01-16T08:13:37;15.57;;;8.47;;
9722;SDS011;4900;49.306;8.500;2024-01-16T08:16:02;12.80;;;7.27;;
9722;SDS011;4900;49.306;8.500;2024-01-16T08:18:28;11.27;;;7.27;;
9722;SDS011;4900;49.306;8.500;2024-01-16T08:20:53;12.27;;;7.03;;
9722;SDS011;4900;49.306;8.500;2024-01-16T08:23:19;11.70;;;7.10;;
9722;SDS011;4900;49.306;8.500;2024-01-16T08:25:46;11.80;;;8.00;;
9722;SDS011;4900;49.306;8.500;2024-01-16T08:28:11;12.03;;;7.53;;
9722;SDS011;4900;49.306;8.500;2024-01-16T08:30:37;10.50;;;7.33;;
9722;SDS011;4900;49.306;8.500;2024-01-16T08:33:02;14.33;;;7.97;;
9722;SDS011;4900;49.306;8.500;2024-01-16T08:35:28;11.57;;;7.30;;
9722;SDS011;4900;49.306;8.500;2024-01-16T08:37:53;12.80;;;7.50;;
9722;SDS011;4900;49.306;8.500;2024-01-16T08:40:18;14.40;;;7.83;;
9722;SDS011;4900;49.306;8.500;2024-01-16T08:42:44;12.73;;;7.23;;
9722;SDS011;4900;49.306;8.500;2024-01-16T08:45:09;13.33;;;7.83;;
9722;SDS011;4900;49.306;8.500;2024-01-16T08:47:35;14.53;;;7.80;;
9722;SDS011;4900;49.306;8.500;2024-01-16T08:50:00;13.93;;;8.23;;
9722;SDS011;4900;49.306;8.500;2024-01-16T08:52:27;14.80;;;8.30;;
9722;SDS011;4900;49.306;8.500;2024-01-16T08:54:52;16.47;;;8.17;;
9722;SDS011;4900;49.306;8.500;2024-01-16T08:57:18;13.87;;;8.20;;
9722;SDS011;4900;49.306;8.500;2024-01-16T08:59:43;14.60;;;7.53;;
9722;SDS011;4900;49.306;8.500;2024-01-16T09:02:09;17.83;;;8.77;;
9722;SDS011;4900;49.306;8.500;2024-01-16T09:04:34;11.83;;;7.83;;
9722;SDS011;4900;49.306;8.500;2024-01-16T09:07:00;12.77;;;8.00;;
9722;SDS011;4900;49.306;8.500;2024-01-16T09:09:27;11.83;;;7.97;;
9722;SDS011;4900;49.306;8.500;2024-01-16T09:11:52;15.47;;;8.30;;
9722;SDS011;4900;49.306;8.500;2024-01-16T09:14:17;12.97;;;8.00;;
9722;SDS011;4900;49.306;8.500;2024-01-16T09:16:45;12.87;;;8.40;;
9722;SDS011;4900;49.306;8.500;2024-01-16T09:19:10;12.23;;;7.60;;
9722;SDS011;4900;49.306;8.500;2024-01-16T09:21:36;14.33;;;8.70;;
9722;SDS011;4900;49.306;8.500;2024-01-16T09:24:02;12.83;;;8.03;;
9722;SDS011;4900;49.306;8.500;2024-01-16T09:26:27;13.27;;;8.20;;
9722;SDS011;4900;49.306;8.500;2024-01-16T09:28:53;14.20;;;8.33;;
9722;SDS011;4900;49.306;8.500;2024-01-16T09:31:18;13.17;;;8.20;;
9722;SDS011;4900;49.306;8.500;2024-01-16T09:33:44;16.83;;;8.33;;
9722;SDS011;4900;49.306;8.500;2024-01-16T09:36:09;15.00;;;8.50;;
9722;SDS011;4900;49.306;8.500;2024-01-16T09:38:35;13.80;;;8.47;;
9722;SDS011;4900;49.306;8.500;2024-01-16T09:41:00;12.87;;;7.90;;
9722;SDS011;4900;49.306;8.500;2024-01-16T09:43:28;14.07;;;7.70;;
9722;SDS011;4900;49.306;8.500;2024-01-16T09:45:55;13.47;;;7.87;;
9722;SDS011;4900;49.306;8.500;2024-01-16T09:48:21;12.47;;;7.57;;
9722;SDS011;4900;49.306;8.500;2024-01-16T09:50:46;12.97;;;8.10;;
9722;SDS011;4900;49.306;8.500;2024-01-16T09:53:12;14.60;;;8.00;;
9722;SDS011;4900;49.306;8.500;2024-01-16T09:55:38;11.83;;;7.50;;
9722;SDS011;4900;49.306;8.500;2024-01-16T09:58:03;13.37;;;7.70;;
9722;SDS011;4900;49.306;8.500;2024-01-16T10:00:31;14.63;;;7.83;;
9722;SDS011;4900;49.306;8.500;2024-01-16T10:02:58;11.73;;;7.70;;
9722;SDS011;4900;49.306;8.500;2024-01-16T10:05:24;12.63;;;7.87;;
9722;SDS011;4900;49.306;8.500;2024-01-16T10:07:50;12.80;;;7.63;;
9722;SDS011;4900;49.306;8.500;2024-01-16T10:10:17;14.63;;;8.43;;
9722;SDS011;4900;49.306;8.500;2024-01-16T10:12:43;12.20;;;7.73;;
9722;SDS011;4900;49.306;8.500;2024-01-16T10:15:09;13.13;;;7.67;;
9722;SDS011;4900;49.306;8.500;2024-01-16T10:17:38;13.50;;;7.93;;
9722;SDS011;4900;49.306;8.500;2024-01-16T10:20:06;12.43;;;7.70;;
9722;SDS011;4900;49.306;8.500;2024-01-16T10:22:33;11.47;;;7.97;;
9722;SDS011;4900;49.306;8.500;2024-01-16T10:27:34;11.67;;;7.40;;
9722;SDS011;4900;49.306;8.500;2024-01-16T10:30:00;12.10;;;7.73;;
9722;SDS011;4900;49.306;8.500;2024-01-16T10:32:28;11.63;;;7.40;;
9722;SDS011;4900;49.306;8.500;2024-01-16T10:35:03;11.40;;;7.97;;
9722;SDS011;4900;49.306;8.500;2024-01-16T10:37:49;13.37;;;7.90;;
9722;SDS011;4900;49.306;8.500;2024-01-16T10:40:17;14.53;;;7.90;;
9722;SDS011;4900;49.306;8.500;2024-01-16T10:42:46;11.77;;;7.13;;
9722;SDS011;4900;49.306;8.500;2024-01-16T10:45:30;12.47;;;7.30;;
9722;SDS011;4900;49.306;8.500;2024-01-16T10:48:06;13.87;;;7.73;;
9722;SDS011;4900;49.306;8.500;2024-01-16T10:50:33;12.27;;;7.50;;
9722;SDS011;4900;49.306;8.500;2024-01-16T10:53:00;11.20;;;7.33;;
9722;SDS011;4900;49.306;8.500;2024-01-16T10:55:29;10.83;;;6.60;;
9722;SDS011;4900;49.306;8.500;2024-01-16T10:57:58;10.37;;;7.23;;
9722;SDS011;4900;49.306;8.500;2024-01-16T11:00:25;10.07;;;6.97;;
9722;SDS011;4900;49.306;8.500;2024-01-16T11:02:59;10.10;;;7.07;;
9722;SDS011;4900;49.306;8.500;2024-01-16T11:05:31;12.97;;;7.47;;
9722;SDS011;4900;49.306;8.500;2024-01-16T11:08:00;12.57;;;7.50;;
9722;SDS011;4900;49.306;8.500;2024-01-16T11:10:26;12.47;;;7.90;;
9722;SDS011;4900;49.306;8.500;2024-01-16T11:12:52;12.33;;;7.80;;
9722;SDS011;4900;49.306;8.500;2024-01-16T11:15:19;12.00;;;7.23;;
9722;SDS011;4900;49.306;8.500;2024-01-16T11:17:45;13.27;;;7.70;;
9722;SDS011;4900;49.306;8.500;2024-01-16T11:20:11;13.03;;;7.60;;
9722;SDS011;4900;49.306;8.500;2024-01-16T11:22:40;13.23;;;8.27;;
9722;SDS011;4900;49.306;8.500;2024-01-16T11:25:11;13.43;;;8.70;;
9722;SDS011;4900;49.306;8.500;2024-01-16T11:27:39;11.97;;;7.87;;
9722;SDS011;4900;49.306;8.500;2024-01-16T11:30:09;11.90;;;7.97;;
9722;SDS011;4900;49.306;8.500;2024-01-16T11:32:40;11.53;;;7.43;;
9722;SDS011;4900;49.306;8.500;2024-01-16T11:35:07;11.80;;;7.40;;
9722;SDS011;4900;49.306;8.500;2024-01-16T11:37:34;10.50;;;7.20;;
9722;SDS011;4900;49.306;8.500;2024-01-16T11:42:49;11.50;;;6.93;;
9722;SDS011;4900;49.306;8.500;2024-01-16T11:48:09;11.83;;;7.53;;
9722;SDS011;4900;49.306;8.500;2024-01-16T11:50:36;11.57;;;7.27;;
9722;SDS011;4900;49.306;8.500;2024-01-16T11:53:01;11.90;;;7.07;;
9722;SDS011;4900;49.306;8.500;2024-01-16T12:01:04;12.63;;;8.33;;
9722;SDS011;4900;49.306;8.500;2024-01-16T12:03:30;14.07;;;8.07;;
9722;SDS011;4900;49.306;8.500;2024-01-16T12:06:00;12.73;;;7.67;;
9722;SDS011;4900;49.306;8.500;2024-01-16T12:08:31;12.37;;;7.50;;
9722;SDS011;4900;49.306;8.500;2024-01-16T12:10:57;12.77;;;7.50;;
9722;SDS011;4900;49.306;8.500;2024-01-16T12:13:24;14.60;;;8.20;;
9722;SDS011;4900;49.306;8.500;2024-01-16T12:15:59;14.70;;;9.37;;
9722;SDS011;4900;49.306;8.500;2024-01-16T12:18:29;13.07;;;7.77;;
9722;SDS011;4900;49.306;8.500;2024-01-16T12:20:55;12.73;;;7.47;;
9722;SDS011;4900;49.306;8.500;2024-01-16T12:23:20;11.37;;;7.33;;
9722;SDS011;4900;49.306;8.500;2024-01-16T12:25:51;11.80;;;7.23;;
9722;SDS011;4900;49.306;8.500;2024-01-16T12:28:20;12.30;;;7.40;;
9722;SDS011;4900;49.306;8.500;2024-01-16T12:30:49;8.33;;;6.30;;
9722;SDS011;4900;49.306;8.500;2024-01-16T12:33:21;10.07;;;6.13;;
9722;SDS011;4900;49.306;8.500;2024-01-16T12:35:47;10.33;;;5.73;;
9722;SDS011;4900;49.306;8.500;2024-01-16T12:38:13;10.93;;;7.00;;
9722;SDS011;4900;49.306;8.500;2024-01-16T12:40:39;10.57;;;5.70;;
9722;SDS011;4900;49.306;8.500;2024-01-16T12:43:07;7.73;;;5.33;;
9722;SDS011;4900;49.306;8.500;2024-01-16T12:45:34;9.30;;;5.73;;
9722;SDS011;4900;49.306;8.500;2024-01-16T12:48:00;8.87;;;5.70;;
9722;SDS011;4900;49.306;8.500;2024-01-16T12:50:26;7.00;;;5.00;;
9722;SDS011;4900;49.306;8.500;2024-01-16T12:53:27;9.20;;;5.80;;
9722;SDS011;4900;49.306;8.500;2024-01-16T12:55:48;9.27;;;5.50;;
9722;SDS011;4900;49.306;8.500;2024-01-16T12:58:24;9.30;;;5.20;;
9722;SDS011;4900;49.306;8.500;2024-01-16T13:00:51;8.87;;;5.10;;
9722;SDS011;4900;49.306;8.500;2024-01-16T13:03:21;8.03;;;5.50;;
9722;SDS011;4900;49.306;8.500;2024-01-16T13:05:58;9.13;;;5.40;;
9722;SDS011;4900;49.306;8.500;2024-01-16T13:08:25;7.23;;;4.63;;
9722;SDS011;4900;49.306;8.500;2024-01-16T13:11:07;8.30;;;4.70;;
9722;SDS011;4900;49.306;8.500;2024-01-16T13:13:34;11.53;;;4.80;;
9722;SDS011;4900;49.306;8.500;2024-01-16T13:16:01;8.37;;;5.43;;
9722;SDS011;4900;49.306;8.500;2024-01-16T13:18:29;8.43;;;5.10;;
9722;SDS011;4900;49.306;8.500;2024-01-16T13:20:58;9.60;;;6.33;;
9722;SDS011;4900;49.306;8.500;2024-01-16T13:23:24;8.03;;;5.87;;
9722;SDS011;4900;49.306;8.500;2024-01-16T13:25:50;9.17;;;6.10;;
9722;SDS011;4900;49.306;8.500;2024-01-16T13:28:17;7.90;;;5.67;;
9722;SDS011;4900;49.306;8.500;2024-01-16T13:30:45;7.87;;;5.20;;
9722;SDS011;4900;49.306;8.500;2024-01-16T13:33:11;10.00;;;6.33;;
9722;SDS011;4900;49.306;8.500;2024-01-16T13:35:38;8.03;;;5.43;;
9722;SDS011;4900;49.306;8.500;2024-01-16T13:38:08;9.60;;;5.87;;
9722;SDS011;4900;49.306;8.500;2024-01-16T13:40:34;14.10;;;7.00;;
9722;SDS011;4900;49.306;8.500;2024-01-16T13:43:01;10.60;;;5.93;;
9722;SDS011;4900;49.306;8.500;2024-01-16T13:45:27;8.97;;;5.23;;
9722;SDS011;4900;49.306;8.500;2024-01-16T13:47:53;9.27;;;5.20;;
9722;SDS011;4900;49.306;8.500;2024-01-16T13:50:19;7.83;;;5.37;;
9722;SDS011;4900;49.306;8.500;2024-01-16T13:52:45;11.50;;;7.37;;
9722;SDS011;4900;49.306;8.500;2024-01-16T13:55:10;9.27;;;5.90;;
9722;SDS011;4900;49.306;8.500;2024-01-16T13:57:36;9.90;;;5.57;;
9722;SDS011;4900;49.306;8.500;2024-01-16T14:00:03;7.33;;;5.53;;
9722;SDS011;4900;49.306;8.500;2024-01-16T14:02:29;9.40;;;5.70;;
9722;SDS011;4900;49.306;8.500;2024-01-16T14:04:55;8.20;;;4.73;;
9722;SDS011;4900;49.306;8.500;2024-01-16T14:07:20;7.37;;;4.67;;
9722;SDS011;4900;49.306;8.500;2024-01-16T14:09:46;8.03;;;5.40;;
9722;SDS011;4900;49.306;8.500;2024-01-16T14:12:12;7.47;;;4.77;;
9722;SDS011;4900;49.306;8.500;2024-01-16T14:14:38;6.60;;;4.73;;
9722;SDS011;4900;49.306;8.500;2024-01-16T14:17:05;9.23;;;5.27;;
9722;SDS011;4900;49.306;8.500;2024-01-16T14:19:31;8.33;;;5.13;;
9722;SDS011;4900;49.306;8.500;2024-01-16T14:21:57;8.40;;;4.80;;
9722;SDS011;4900;49.306;8.500;2024-01-16T14:24:22;8.33;;;4.50;;
9722;SDS011;4900;49.306;8.500;2024-01-16T14:26:48;8.27;;;4.70;;
9722;SDS011;4900;49.306;8.500;2024-01-16T14:29:13;7.47;;;4.70;;
9722;SDS011;4900;49.306;8.500;2024-01-16T14:31:39;6.77;;;4.03;;
9722;SDS011;4900;49.306;8.500;2024-01-16T14:34:11;7.77;;;4.80;;
9722;SDS011;4900;49.306;8.500;2024-01-16T14:36:39;7.40;;;4.37;;
9722;SDS011;4900;49.306;8.500;2024-01-16T14:39:06;6.33;;;4.63;;
9722;SDS011;4900;49.306;8.500;2024-01-16T14:41:31;8.47;;;4.10;;
9722;SDS011;4900;49.306;8.500;2024-01-16T14:43:57;6.57;;;3.93;;
9722;SDS011;4900;49.306;8.500;2024-01-16T14:46:23;5.87;;;3.77;;
9722;SDS011;4900;49.306;8.500;2024-01-16T14:48:48;7.63;;;4.27;;
9722;SDS011;4900;49.306;8.500;2024-01-16T14:51:14;7.57;;;4.17;;
9722;SDS011;4900;49.306;8.500;2024-01-16T14:53:39;7.67;;;4.07;;
9722;SDS011;4900;49.306;8.500;2024-01-16T14:56:05;7.10;;;4.50;;
9722;SDS011;4900;49.306;8.500;2024-01-16T14:58:31;7.07;;;4.30;;
9722;SDS011;4900;49.306;8.500;2024-01-16T15:00:57;7.40;;;4.47;;
9722;SDS011;4900;49.306;8.500;2024-01-16T15:03:23;6.73;;;4.23;;
9722;SDS011;4900;49.306;8.500;2024-01-16T15:05:49;8.10;;;4.37;;
9722;SDS011;4900;49.306;8.500;2024-01-16T15:08:17;9.40;;;4.30;;
9722;SDS011;4900;49.306;8.500;2024-01-16T15:10:43;7.13;;;4.37;;
9722;SDS011;4900;49.306;8.500;2024-01-16T15:13:09;6.60;;;4.40;;
9722;SDS011;4900;49.306;8.500;2024-01-16T15:15:34;5.90;;;3.63;;